sensor_id;sensor_type;location;lat;lon;timestamp;P1;durP1;ratioP1;P2;durP2;ratioP2
68097;SDS011;54886;47.036;15.466;2023-06-10T00:01:12;6.35;;;4.28;;
68097;SDS011;54886;47.036;15.466;2023-06-10T00:03:37;8.13;;;4.80;;
68097;SDS011;54886;47.036;15.466;2023-06-10T00:06:04;9.55;;;5.05;;
68097;SDS011;54886;47.036;15.466;2023-06-10T00:08:30;9.98;;;4.85;;
68097;SDS011;54886;47.036;15.466;2023-06-10T00:10:56;6.82;;;4.38;;
68097;SDS011;54886;47.036;15.466;2023-06-10T00:13:21;6.80;;;4.25;;
68097;SDS011;54886;47.036;15.466;2023-06-10T00:15:47;7.15;;;4.63;;
68097;SDS011;54886;47.036;15.466;2023-06-10T00:18:12;6.57;;;4.60;;
68097;SDS011;54886;47.036;15.466;2023-06-10T00:20:38;8.48;;;5.10;;
68097;SDS011;54886;47.036;15.466;2023-06-10T00:23:04;8.50;;;4.10;;
68097;SDS011;54886;47.036;15.466;2023-06-10T00:25:31;8.75;;;4.55;;
68097;SDS011;54886;47.036;15.466;2023-06-10T00:27:58;6.47;;;4.20;;
68097;SDS011;54886;47.036;15.466;2023-06-10T00:30:23;6.75;;;4.38;;
68097;SDS011;54886;47.036;15.466;2023-06-10T00:32:48;6.45;;;4.15;;
68097;SDS011;54886;47.036;15.466;2023-06-10T00:35:14;6.70;;;4.68;;
68097;SDS011;54886;47.036;15.466;2023-06-10T00:37:39;8.75;;;4.75;;
68097;SDS011;54886;47.036;15.466;2023-06-10T00:40:05;6.03;;;4.07;;
68097;SDS011;54886;47.036;15.466;2023-06-10T00:42:31;9.98;;;4.65;;
68097;SDS011;54886;47.036;15.466;2023-06-10T00:44:56;7.25;;;4.50;;
68097;SDS011;54886;47.036;15.466;2023-06-10T00:47:22;8.15;;;4.35;;
68097;SDS011;54886;47.036;15.466;2023-06-10T00:49:48;12.98;;;4.88;;
68097;SDS011;54886;47.036;15.466;2023-06-10T00:54:41;7.45;;;4.38;;
68097;SDS011;54886;47.036;15.466;2023-06-10T00:57:07;7.25;;;4.65;;
68097;SDS011;54886;47.036;15.466;2023-06-10T00:59:32;7.22;;;4.97;;
68097;SDS011;54886;47.036;15.466;2023-06-10T01:01:59;8.25;;;4.90;;
68097;SDS011;54886;47.036;15.466;2023-06-10T01:04:25;7.50;;;4.85;;
68097;SDS011;54886;47.036;15.466;2023-06-10T01:12:34;6.28;;;4.20;;
68097;SDS011;54886;47.036;15.466;2023-06-10T01:15:06;7.53;;;4.43;;
68097;SDS011;54886;47.036;15.466;2023-06-10T01:17:33;8.48;;;4.57;;
68097;SDS011;54886;47.036;15.466;2023-06-10T01:19:59;6.97;;;4.80;;
68097;SDS011;54886;47.036;15.466;2023-06-10T01:22:25;6.25;;;4.28;;
68097;SDS011;54886;47.036;15.466;2023-06-10T01:24:53;8.05;;;4.78;;
68097;SDS011;54886;47.036;15.466;2023-06-10T01:27:23;7.32;;;4.60;;
68097;SDS011;54886;47.036;15.466;2023-06-10T01:30:04;7.38;;;4.57;;
68097;SDS011;54886;47.036;15.466;2023-06-10T01:32:40;9.65;;;4.70;;
68097;SDS011;54886;47.036;15.466;2023-06-10T01:35:09;8.10;;;4.93;;
68097;SDS011;54886;47.036;15.466;2023-06-10T01:37:36;12.48;;;4.90;;
68097;SDS011;54886;47.036;15.466;2023-06-10T01:40:05;7.40;;;4.63;;
68097;SDS011;54886;47.036;15.466;2023-06-10T01:42:31;7.97;;;4.50;;
68097;SDS011;54886;47.036;15.466;2023-06-10T01:44:57;6.88;;;4.40;;
68097;SDS011;54886;47.036;15.466;2023-06-10T01:47:23;7.05;;;4.32;;
68097;SDS011;54886;47.036;15.466;2023-06-10T01:49:48;7.90;;;4.68;;
68097;SDS011;54886;47.036;15.466;2023-06-10T01:52:14;6.68;;;4.32;;
68097;SDS011;54886;47.036;15.466;2023-06-10T01:54:39;7.22;;;4.90;;
68097;SDS011;54886;47.036;15.466;2023-06-10T01:57:05;13.23;;;4.72;;
68097;SDS011;54886;47.036;15.466;2023-06-10T01:59:31;7.63;;;4.70;;
68097;SDS011;54886;47.036;15.466;2023-06-10T02:01:56;7.85;;;4.75;;
68097;SDS011;54886;47.036;15.466;2023-06-10T02:04:22;6.78;;;4.45;;
68097;SDS011;54886;47.036;15.466;2023-06-10T02:06:47;7.65;;;4.78;;
68097;SDS011;54886;47.036;15.466;2023-06-10T02:09:13;6.68;;;4.32;;
68097;SDS011;54886;47.036;15.466;2023-06-10T02:11:38;7.53;;;4.43;;
68097;SDS011;54886;47.036;15.466;2023-06-10T02:14:04;7.57;;;4.80;;
68097;SDS011;54886;47.036;15.466;2023-06-10T02:16:30;7.38;;;4.63;;
68097;SDS011;54886;47.036;15.466;2023-06-10T02:18:56;6.15;;;4.65;;
68097;SDS011;54886;47.036;15.466;2023-06-10T02:21:21;7.47;;;4.22;;
68097;SDS011;54886;47.036;15.466;2023-06-10T02:23:47;6.68;;;4.53;;
68097;SDS011;54886;47.036;15.466;2023-06-10T02:26:12;7.88;;;4.20;;
68097;SDS011;54886;47.036;15.466;2023-06-10T02:28:37;7.35;;;4.18;;
68097;SDS011;54886;47.036;15.466;2023-06-10T02:31:03;6.40;;;4.30;;
68097;SDS011;54886;47.036;15.466;2023-06-10T02:33:28;7.20;;;4.20;;
68097;SDS011;54886;47.036;15.466;2023-06-10T02:35:54;7.30;;;4.63;;
68097;SDS011;54886;47.036;15.466;2023-06-10T02:38:20;10.80;;;3.90;;
68097;SDS011;54886;47.036;15.466;2023-06-10T02:40:46;6.25;;;4.50;;
68097;SDS011;54886;47.036;15.466;2023-06-10T02:43:11;7.97;;;4.50;;
68097;SDS011;54886;47.036;15.466;2023-06-10T02:45:36;8.68;;;4.72;;
68097;SDS011;54886;47.036;15.466;2023-06-10T02:48:02;9.32;;;4.78;;
68097;SDS011;54886;47.036;15.466;2023-06-10T02:50:27;8.55;;;5.40;;
68097;SDS011;54886;47.036;15.466;2023-06-10T02:52:53;7.97;;;5.43;;
68097;SDS011;54886;47.036;15.466;2023-06-10T02:55:18;9.02;;;5.60;;
68097;SDS011;54886;47.036;15.466;2023-06-10T02:57:43;9.50;;;5.47;;
68097;SDS011;54886;47.036;15.466;2023-06-10T03:00:09;16.40;;;5.70;;
68097;SDS011;54886;47.036;15.466;2023-06-10T03:02:36;10.07;;;6.03;;
68097;SDS011;54886;47.036;15.466;2023-06-10T03:07:30;7.75;;;5.35;;
68097;SDS011;54886;47.036;15.466;2023-06-10T03:09:55;8.13;;;5.20;;
68097;SDS011;54886;47.036;15.466;2023-06-10T03:12:22;10.13;;;5.50;;
68097;SDS011;54886;47.036;15.466;2023-06-10T03:14:48;9.68;;;5.00;;
68097;SDS011;54886;47.036;15.466;2023-06-10T03:17:13;8.88;;;5.13;;
68097;SDS011;54886;47.036;15.466;2023-06-10T03:19:38;7.40;;;5.30;;
68097;SDS011;54886;47.036;15.466;2023-06-10T03:22:08;8.18;;;5.13;;
68097;SDS011;54886;47.036;15.466;2023-06-10T03:24:34;6.95;;;4.95;;
68097;SDS011;54886;47.036;15.466;2023-06-10T03:27:01;7.10;;;5.00;;
68097;SDS011;54886;47.036;15.466;2023-06-10T03:29:27;6.28;;;4.78;;
68097;SDS011;54886;47.036;15.466;2023-06-10T03:31:52;7.43;;;5.03;;
68097;SDS011;54886;47.036;15.466;2023-06-10T03:34:17;8.65;;;4.75;;
68097;SDS011;54886;47.036;15.466;2023-06-10T03:36:43;9.32;;;5.38;;
68097;SDS011;54886;47.036;15.466;2023-06-10T03:39:08;7.10;;;5.35;;
68097;SDS011;54886;47.036;15.466;2023-06-10T03:41:34;7.88;;;5.40;;
68097;SDS011;54886;47.036;15.466;2023-06-10T03:44:00;6.70;;;5.05;;
68097;SDS011;54886;47.036;15.466;2023-06-10T03:46:25;6.95;;;5.25;;
68097;SDS011;54886;47.036;15.466;2023-06-10T03:48:51;7.78;;;5.22;;
68097;SDS011;54886;47.036;15.466;2023-06-10T03:51:16;7.32;;;5.40;;
68097;SDS011;54886;47.036;15.466;2023-06-10T03:53:42;7.50;;;5.60;;
68097;SDS011;54886;47.036;15.466;2023-06-10T03:56:07;7.57;;;5.50;;
68097;SDS011;54886;47.036;15.466;2023-06-10T03:58:32;6.78;;;4.93;;
68097;SDS011;54886;47.036;15.466;2023-06-10T04:00:58;6.82;;;5.07;;
68097;SDS011;54886;47.036;15.466;2023-06-10T04:03:23;7.47;;;5.30;;
68097;SDS011;54886;47.036;15.466;2023-06-10T04:05:48;7.35;;;5.20;;
68097;SDS011;54886;47.036;15.466;2023-06-10T04:08:15;9.55;;;5.88;;
68097;SDS011;54886;47.036;15.466;2023-06-10T04:10:42;7.40;;;5.40;;
68097;SDS011;54886;47.036;15.466;2023-06-10T04:13:07;10.68;;;6.03;;
68097;SDS011;54886;47.036;15.466;2023-06-10T04:15:33;7.82;;;5.75;;
68097;SDS011;54886;47.036;15.466;2023-06-10T04:17:59;7.63;;;5.65;;
68097;SDS011;54886;47.036;15.466;2023-06-10T04:20:26;9.02;;;5.80;;
68097;SDS011;54886;47.036;15.466;2023-06-10T04:22:51;7.85;;;5.95;;
68097;SDS011;54886;47.036;15.466;2023-06-10T04:25:17;8.60;;;6.05;;
68097;SDS011;54886;47.036;15.466;2023-06-10T04:27:43;9.00;;;6.03;;
68097;SDS011;54886;47.036;15.466;2023-06-10T04:30:08;8.95;;;6.15;;
68097;SDS011;54886;47.036;15.466;2023-06-10T04:32:34;9.20;;;6.80;;
68097;SDS011;54886;47.036;15.466;2023-06-10T04:35:00;11.57;;;6.20;;
68097;SDS011;54886;47.036;15.466;2023-06-10T04:37:25;10.35;;;6.05;;
68097;SDS011;54886;47.036;15.466;2023-06-10T04:39:51;9.18;;;7.05;;
68097;SDS011;54886;47.036;15.466;2023-06-10T04:42:16;8.35;;;6.00;;
68097;SDS011;54886;47.036;15.466;2023-06-10T04:44:41;10.02;;;6.68;;
68097;SDS011;54886;47.036;15.466;2023-06-10T04:47:07;9.00;;;6.53;;
68097;SDS011;54886;47.036;15.466;2023-06-10T04:49:34;8.63;;;5.82;;
68097;SDS011;54886;47.036;15.466;2023-06-10T04:52:00;7.85;;;5.80;;
68097;SDS011;54886;47.036;15.466;2023-06-10T04:54:25;8.32;;;6.20;;
68097;SDS011;54886;47.036;15.466;2023-06-10T04:56:51;8.65;;;5.90;;
68097;SDS011;54886;47.036;15.466;2023-06-10T04:59:16;8.07;;;5.68;;
68097;SDS011;54886;47.036;15.466;2023-06-10T05:01:41;8.50;;;5.32;;
68097;SDS011;54886;47.036;15.466;2023-06-10T05:04:08;9.05;;;5.47;;
68097;SDS011;54886;47.036;15.466;2023-06-10T05:06:33;7.85;;;5.68;;
68097;SDS011;54886;47.036;15.466;2023-06-10T05:08:59;9.45;;;6.65;;
68097;SDS011;54886;47.036;15.466;2023-06-10T05:11:24;8.50;;;6.13;;
68097;SDS011;54886;47.036;15.466;2023-06-10T05:13:50;8.98;;;5.90;;
68097;SDS011;54886;47.036;15.466;2023-06-10T05:16:15;9.82;;;5.80;;
68097;SDS011;54886;47.036;15.466;2023-06-10T05:18:40;8.68;;;5.72;;
68097;SDS011;54886;47.036;15.466;2023-06-10T05:21:06;9.90;;;5.80;;
68097;SDS011;54886;47.036;15.466;2023-06-10T05:23:32;7.97;;;5.35;;
68097;SDS011;54886;47.036;15.466;2023-06-10T05:25:58;8.50;;;5.95;;
68097;SDS011;54886;47.036;15.466;2023-06-10T05:28:24;9.90;;;5.97;;
68097;SDS011;54886;47.036;15.466;2023-06-10T05:30:50;8.63;;;5.80;;
68097;SDS011;54886;47.036;15.466;2023-06-10T05:33:16;7.50;;;5.72;;
68097;SDS011;54886;47.036;15.466;2023-06-10T05:35:41;8.45;;;6.25;;
68097;SDS011;54886;47.036;15.466;2023-06-10T05:38:07;9.98;;;5.97;;
68097;SDS011;54886;47.036;15.466;2023-06-10T05:40:32;9.10;;;5.93;;
68097;SDS011;54886;47.036;15.466;2023-06-10T05:42:58;8.00;;;6.00;;
68097;SDS011;54886;47.036;15.466;2023-06-10T05:45:23;10.30;;;6.13;;
68097;SDS011;54886;47.036;15.466;2023-06-10T05:47:48;10.63;;;6.53;;
68097;SDS011;54886;47.036;15.466;2023-06-10T05:50:14;8.95;;;5.95;;
68097;SDS011;54886;47.036;15.466;2023-06-10T05:52:40;8.63;;;6.00;;
68097;SDS011;54886;47.036;15.466;2023-06-10T05:55:06;9.13;;;5.90;;
68097;SDS011;54886;47.036;15.466;2023-06-10T05:57:31;10.02;;;5.95;;
68097;SDS011;54886;47.036;15.466;2023-06-10T05:59:57;9.13;;;5.45;;
68097;SDS011;54886;47.036;15.466;2023-06-10T06:02:22;8.30;;;5.53;;
68097;SDS011;54886;47.036;15.466;2023-06-10T06:04:47;7.95;;;5.65;;
68097;SDS011;54886;47.036;15.466;2023-06-10T06:07:13;8.10;;;6.38;;
68097;SDS011;54886;47.036;15.466;2023-06-10T06:09:39;9.52;;;6.10;;
68097;SDS011;54886;47.036;15.466;2023-06-10T06:12:04;8.32;;;6.10;;
68097;SDS011;54886;47.036;15.466;2023-06-10T06:16:58;8.18;;;6.47;;
68097;SDS011;54886;47.036;15.466;2023-06-10T06:19:23;12.10;;;7.15;;
68097;SDS011;54886;47.036;15.466;2023-06-10T06:21:48;9.05;;;6.15;;
68097;SDS011;54886;47.036;15.466;2023-06-10T06:24:14;8.63;;;6.20;;
68097;SDS011;54886;47.036;15.466;2023-06-10T06:26:41;8.30;;;5.60;;
68097;SDS011;54886;47.036;15.466;2023-06-10T06:29:07;9.93;;;6.25;;
68097;SDS011;54886;47.036;15.466;2023-06-10T06:31:32;8.35;;;6.43;;
68097;SDS011;54886;47.036;15.466;2023-06-10T06:33:57;9.38;;;6.63;;
68097;SDS011;54886;47.036;15.466;2023-06-10T06:36:23;10.82;;;6.72;;
68097;SDS011;54886;47.036;15.466;2023-06-10T06:38:48;9.23;;;6.85;;
68097;SDS011;54886;47.036;15.466;2023-06-10T06:41:14;10.98;;;6.90;;
68097;SDS011;54886;47.036;15.466;2023-06-10T06:43:39;10.23;;;6.82;;
68097;SDS011;54886;47.036;15.466;2023-06-10T06:46:05;9.70;;;6.68;;
68097;SDS011;54886;47.036;15.466;2023-06-10T06:48:30;9.90;;;7.18;;
68097;SDS011;54886;47.036;15.466;2023-06-10T06:50:55;10.23;;;7.38;;
68097;SDS011;54886;47.036;15.466;2023-06-10T06:53:22;9.25;;;6.65;;
68097;SDS011;54886;47.036;15.466;2023-06-10T06:55:48;8.10;;;6.35;;
68097;SDS011;54886;47.036;15.466;2023-06-10T06:58:13;11.10;;;7.25;;
68097;SDS011;54886;47.036;15.466;2023-06-10T07:00:39;9.65;;;7.75;;
68097;SDS011;54886;47.036;15.466;2023-06-10T07:03:04;9.35;;;7.05;;
68097;SDS011;54886;47.036;15.466;2023-06-10T07:05:30;9.57;;;6.82;;
68097;SDS011;54886;47.036;15.466;2023-06-10T07:07:55;9.10;;;6.80;;
68097;SDS011;54886;47.036;15.466;2023-06-10T07:10:24;9.65;;;6.47;;
68097;SDS011;54886;47.036;15.466;2023-06-10T07:12:50;9.38;;;6.40;;
68097;SDS011;54886;47.036;15.466;2023-06-10T07:15:16;8.98;;;6.38;;
68097;SDS011;54886;47.036;15.466;2023-06-10T07:17:41;9.70;;;6.55;;
68097;SDS011;54886;47.036;15.466;2023-06-10T07:20:07;8.63;;;6.68;;
68097;SDS011;54886;47.036;15.466;2023-06-10T07:22:33;10.25;;;6.65;;
68097;SDS011;54886;47.036;15.466;2023-06-10T07:24:58;9.15;;;6.80;;
68097;SDS011;54886;47.036;15.466;2023-06-10T07:27:24;9.00;;;6.32;;
68097;SDS011;54886;47.036;15.466;2023-06-10T07:29:50;10.00;;;6.72;;
68097;SDS011;54886;47.036;15.466;2023-06-10T07:32:16;8.65;;;6.60;;
68097;SDS011;54886;47.036;15.466;2023-06-10T07:34:41;8.93;;;6.20;;
68097;SDS011;54886;47.036;15.466;2023-06-10T07:37:06;8.82;;;6.10;;
68097;SDS011;54886;47.036;15.466;2023-06-10T07:39:32;9.68;;;6.20;;
68097;SDS011;54886;47.036;15.466;2023-06-10T07:41:57;11.52;;;6.50;;
68097;SDS011;54886;47.036;15.466;2023-06-10T07:44:23;8.63;;;6.03;;
68097;SDS011;54886;47.036;15.466;2023-06-10T07:46:48;9.02;;;6.47;;
68097;SDS011;54886;47.036;15.466;2023-06-10T07:49:14;8.82;;;6.20;;
68097;SDS011;54886;47.036;15.466;2023-06-10T07:51:40;8.63;;;6.28;;
68097;SDS011;54886;47.036;15.466;2023-06-10T07:54:05;8.27;;;6.03;;
68097;SDS011;54886;47.036;15.466;2023-06-10T07:56:30;10.43;;;6.40;;
68097;SDS011;54886;47.036;15.466;2023-06-10T07:58:56;7.25;;;5.40;;
68097;SDS011;54886;47.036;15.466;2023-06-10T08:01:22;8.63;;;5.72;;
68097;SDS011;54886;47.036;15.466;2023-06-10T08:03:48;8.48;;;6.25;;
68097;SDS011;54886;47.036;15.466;2023-06-10T08:06:13;9.00;;;5.72;;
68097;SDS011;54886;47.036;15.466;2023-06-10T08:08:39;8.15;;;5.97;;
68097;SDS011;54886;47.036;15.466;2023-06-10T08:11:08;8.88;;;5.78;;
68097;SDS011;54886;47.036;15.466;2023-06-10T08:13:36;10.15;;;6.40;;
68097;SDS011;54886;47.036;15.466;2023-06-10T08:16:01;8.70;;;6.32;;
68097;SDS011;54886;47.036;15.466;2023-06-10T08:18:26;7.70;;;5.32;;
68097;SDS011;54886;47.036;15.466;2023-06-10T08:20:52;8.07;;;5.85;;
68097;SDS011;54886;47.036;15.466;2023-06-10T08:23:17;8.55;;;5.50;;
68097;SDS011;54886;47.036;15.466;2023-06-10T08:25:44;9.00;;;6.07;;
68097;SDS011;54886;47.036;15.466;2023-06-10T08:28:10;9.90;;;6.82;;
68097;SDS011;54886;47.036;15.466;2023-06-10T08:30:35;8.50;;;6.32;;
68097;SDS011;54886;47.036;15.466;2023-06-10T08:33:00;7.68;;;5.60;;
68097;SDS011;54886;47.036;15.466;2023-06-10T08:35:26;8.23;;;6.18;;
68097;SDS011;54886;47.036;15.466;2023-06-10T08:37:51;9.57;;;6.63;;
68097;SDS011;54886;47.036;15.466;2023-06-10T08:40:16;9.07;;;6.00;;
68097;SDS011;54886;47.036;15.466;2023-06-10T08:42:47;10.05;;;6.80;;
68097;SDS011;54886;47.036;15.466;2023-06-10T08:45:17;14.02;;;6.80;;
68097;SDS011;54886;47.036;15.466;2023-06-10T08:47:46;10.57;;;6.60;;
68097;SDS011;54886;47.036;15.466;2023-06-10T08:50:16;9.50;;;7.13;;
68097;SDS011;54886;47.036;15.466;2023-06-10T08:52:43;8.85;;;6.53;;
68097;SDS011;54886;47.036;15.466;2023-06-10T08:55:21;9.43;;;6.97;;
68097;SDS011;54886;47.036;15.466;2023-06-10T08:57:52;9.55;;;6.75;;
68097;SDS011;54886;47.036;15.466;2023-06-10T09:00:18;8.80;;;6.75;;
68097;SDS011;54886;47.036;15.466;2023-06-10T09:02:44;9.02;;;6.60;;
68097;SDS011;54886;47.036;15.466;2023-06-10T09:05:10;10.93;;;7.28;;
68097;SDS011;54886;47.036;15.466;2023-06-10T09:07:36;9.07;;;6.43;;
68097;SDS011;54886;47.036;15.466;2023-06-10T09:10:02;10.77;;;6.75;;
68097;SDS011;54886;47.036;15.466;2023-06-10T09:12:29;9.23;;;7.10;;
68097;SDS011;54886;47.036;15.466;2023-06-10T09:14:54;11.02;;;7.68;;
68097;SDS011;54886;47.036;15.466;2023-06-10T09:17:21;10.35;;;7.60;;
68097;SDS011;54886;47.036;15.466;2023-06-10T09:19:47;10.68;;;7.20;;
68097;SDS011;54886;47.036;15.466;2023-06-10T09:22:12;8.82;;;6.75;;
68097;SDS011;54886;47.036;15.466;2023-06-10T09:24:38;9.75;;;6.88;;
68097;SDS011;54886;47.036;15.466;2023-06-10T09:27:04;8.88;;;6.80;;
68097;SDS011;54886;47.036;15.466;2023-06-10T09:29:48;10.35;;;6.97;;
68097;SDS011;54886;47.036;15.466;2023-06-10T09:32:17;12.15;;;7.25;;
68097;SDS011;54886;47.036;15.466;2023-06-10T09:34:43;10.17;;;7.60;;
68097;SDS011;54886;47.036;15.466;2023-06-10T09:37:09;9.13;;;7.38;;
68097;SDS011;54886;47.036;15.466;2023-06-10T09:39:37;10.02;;;7.15;;
68097;SDS011;54886;47.036;15.466;2023-06-10T09:42:15;9.75;;;6.80;;
68097;SDS011;54886;47.036;15.466;2023-06-10T09:44:42;10.73;;;6.53;;
68097;SDS011;54886;47.036;15.466;2023-06-10T09:47:07;9.25;;;6.47;;
68097;SDS011;54886;47.036;15.466;2023-06-10T09:49:32;9.85;;;6.90;;
68097;SDS011;54886;47.036;15.466;2023-06-10T09:51:58;9.35;;;6.53;;
68097;SDS011;54886;47.036;15.466;2023-06-10T09:54:23;9.40;;;6.60;;
68097;SDS011;54886;47.036;15.466;2023-06-10T09:56:56;9.18;;;6.60;;
68097;SDS011;54886;47.036;15.466;2023-06-10T10:01:59;10.85;;;6.47;;
68097;SDS011;54886;47.036;15.466;2023-06-10T10:04:25;9.68;;;6.72;;
68097;SDS011;54886;47.036;15.466;2023-06-10T10:06:51;9.23;;;6.78;;
68097;SDS011;54886;47.036;15.466;2023-06-10T10:09:17;8.35;;;6.25;;
68097;SDS011;54886;47.036;15.466;2023-06-10T10:11:43;8.00;;;5.90;;
68097;SDS011;54886;47.036;15.466;2023-06-10T10:14:09;10.00;;;5.97;;
68097;SDS011;54886;47.036;15.466;2023-06-10T10:16:36;9.65;;;6.63;;
68097;SDS011;54886;47.036;15.466;2023-06-10T10:19:12;8.27;;;6.30;;
68097;SDS011;54886;47.036;15.466;2023-06-10T10:21:44;8.32;;;5.80;;
68097;SDS011;54886;47.036;15.466;2023-06-10T10:24:23;9.40;;;6.55;;
68097;SDS011;54886;47.036;15.466;2023-06-10T10:26:55;9.23;;;6.65;;
68097;SDS011;54886;47.036;15.466;2023-06-10T10:29:30;9.32;;;6.45;;
68097;SDS011;54886;47.036;15.466;2023-06-10T10:31:58;10.18;;;6.50;;
68097;SDS011;54886;47.036;15.466;2023-06-10T10:34:45;8.32;;;6.13;;
68097;SDS011;54886;47.036;15.466;2023-06-10T10:37:32;9.65;;;6.25;;
68097;SDS011;54886;47.036;15.466;2023-06-10T10:39:58;10.40;;;6.85;;
68097;SDS011;54886;47.036;15.466;2023-06-10T10:42:25;8.00;;;6.22;;
68097;SDS011;54886;47.036;15.466;2023-06-10T10:44:51;9.52;;;6.70;;
68097;SDS011;54886;47.036;15.466;2023-06-10T10:47:17;8.95;;;6.40;;
68097;SDS011;54886;47.036;15.466;2023-06-10T10:49:46;8.32;;;6.22;;
68097;SDS011;54886;47.036;15.466;2023-06-10T10:52:15;8.13;;;6.18;;
68097;SDS011;54886;47.036;15.466;2023-06-10T10:54:44;9.77;;;6.57;;
68097;SDS011;54886;47.036;15.466;2023-06-10T10:57:15;8.55;;;6.05;;
68097;SDS011;54886;47.036;15.466;2023-06-10T11:02:33;10.68;;;5.97;;
68097;SDS011;54886;47.036;15.466;2023-06-10T11:04:59;8.75;;;6.18;;
68097;SDS011;54886;47.036;15.466;2023-06-10T11:07:26;10.95;;;6.28;;
68097;SDS011;54886;47.036;15.466;2023-06-10T11:09:58;7.95;;;5.93;;
68097;SDS011;54886;47.036;15.466;2023-06-10T11:15:07;8.73;;;5.53;;
68097;SDS011;54886;47.036;15.466;2023-06-10T11:17:33;7.80;;;5.38;;
68097;SDS011;54886;47.036;15.466;2023-06-10T11:19:58;7.68;;;5.30;;
68097;SDS011;54886;47.036;15.466;2023-06-10T11:22:24;7.40;;;5.30;;
68097;SDS011;54886;47.036;15.466;2023-06-10T11:24:50;7.80;;;5.55;;
68097;SDS011;54886;47.036;15.466;2023-06-10T11:27:20;8.00;;;5.65;;
68097;SDS011;54886;47.036;15.466;2023-06-10T11:32:31;7.13;;;5.20;;
68097;SDS011;54886;47.036;15.466;2023-06-10T11:34:58;7.20;;;4.80;;
68097;SDS011;54886;47.036;15.466;2023-06-10T11:37:24;6.65;;;4.75;;
68097;SDS011;54886;47.036;15.466;2023-06-10T11:39:56;7.15;;;5.18;;
68097;SDS011;54886;47.036;15.466;2023-06-10T11:42:22;7.57;;;5.20;;
68097;SDS011;54886;47.036;15.466;2023-06-10T11:44:51;7.57;;;5.60;;
68097;SDS011;54886;47.036;15.466;2023-06-10T11:47:19;8.25;;;5.13;;
68097;SDS011;54886;47.036;15.466;2023-06-10T11:49:45;7.22;;;5.10;;
68097;SDS011;54886;47.036;15.466;2023-06-10T11:52:25;8.52;;;5.30;;
68097;SDS011;54886;47.036;15.466;2023-06-10T11:54:55;6.95;;;5.10;;
68097;SDS011;54886;47.036;15.466;2023-06-10T11:57:21;7.50;;;5.05;;
68097;SDS011;54886;47.036;15.466;2023-06-10T11:59:46;7.03;;;4.93;;
68097;SDS011;54886;47.036;15.466;2023-06-10T12:02:15;7.40;;;5.13;;
68097;SDS011;54886;47.036;15.466;2023-06-10T12:04:41;6.93;;;5.28;;
68097;SDS011;54886;47.036;15.466;2023-06-10T12:07:07;7.38;;;5.07;;
68097;SDS011;54886;47.036;15.466;2023-06-10T12:09:32;7.40;;;5.28;;
68097;SDS011;54886;47.036;15.466;2023-06-10T12:12:04;7.53;;;5.03;;
68097;SDS011;54886;47.036;15.466;2023-06-10T12:17:15;6.63;;;4.65;;
68097;SDS011;54886;47.036;15.466;2023-06-10T12:19:40;7.07;;;5.00;;
68097;SDS011;54886;47.036;15.466;2023-06-10T12:22:05;7.22;;;4.65;;
68097;SDS011;54886;47.036;15.466;2023-06-10T12:24:31;6.60;;;4.68;;
68097;SDS011;54886;47.036;15.466;2023-06-10T12:26:56;6.80;;;4.80;;
68097;SDS011;54886;47.036;15.466;2023-06-10T12:29:22;6.90;;;4.60;;
68097;SDS011;54886;47.036;15.466;2023-06-10T12:32:00;6.05;;;4.40;;
68097;SDS011;54886;47.036;15.466;2023-06-10T12:34:31;7.45;;;4.90;;
68097;SDS011;54886;47.036;15.466;2023-06-10T12:36:58;7.82;;;4.45;;
68097;SDS011;54886;47.036;15.466;2023-06-10T12:39:24;8.13;;;5.00;;
68097;SDS011;54886;47.036;15.466;2023-06-10T12:41:49;6.38;;;4.40;;
68097;SDS011;54886;47.036;15.466;2023-06-10T12:44:16;8.75;;;5.07;;
68097;SDS011;54886;47.036;15.466;2023-06-10T12:46:41;9.90;;;4.82;;
68097;SDS011;54886;47.036;15.466;2023-06-10T12:49:07;6.15;;;4.57;;
68097;SDS011;54886;47.036;15.466;2023-06-10T12:51:32;7.13;;;4.68;;
68097;SDS011;54886;47.036;15.466;2023-06-10T12:53:59;8.07;;;4.57;;
68097;SDS011;54886;47.036;15.466;2023-06-10T12:56:25;6.53;;;4.55;;
68097;SDS011;54886;47.036;15.466;2023-06-10T12:58:50;6.55;;;4.60;;
68097;SDS011;54886;47.036;15.466;2023-06-10T13:01:16;7.85;;;4.82;;
68097;SDS011;54886;47.036;15.466;2023-06-10T13:03:41;7.68;;;4.50;;
68097;SDS011;54886;47.036;15.466;2023-06-10T13:06:06;6.75;;;4.70;;
68097;SDS011;54886;47.036;15.466;2023-06-10T13:08:32;9.43;;;4.90;;
68097;SDS011;54886;47.036;15.466;2023-06-10T13:10:58;6.72;;;4.57;;
68097;SDS011;54886;47.036;15.466;2023-06-10T13:13:23;6.45;;;4.50;;
68097;SDS011;54886;47.036;15.466;2023-06-10T13:15:49;7.35;;;4.60;;
68097;SDS011;54886;47.036;15.466;2023-06-10T13:18:15;6.18;;;4.72;;
68097;SDS011;54886;47.036;15.466;2023-06-10T13:20:42;6.80;;;4.80;;
68097;SDS011;54886;47.036;15.466;2023-06-10T13:23:08;6.78;;;4.47;;
68097;SDS011;54886;47.036;15.466;2023-06-10T13:25:34;7.57;;;4.68;;
68097;SDS011;54886;47.036;15.466;2023-06-10T13:27:59;5.68;;;4.35;;
68097;SDS011;54886;47.036;15.466;2023-06-10T13:30:24;9.35;;;5.05;;
68097;SDS011;54886;47.036;15.466;2023-06-10T13:32:51;6.65;;;4.90;;
68097;SDS011;54886;47.036;15.466;2023-06-10T13:35:16;6.13;;;4.32;;
68097;SDS011;54886;47.036;15.466;2023-06-10T13:37:42;5.90;;;4.28;;
68097;SDS011;54886;47.036;15.466;2023-06-10T13:40:07;5.22;;;4.00;;
68097;SDS011;54886;47.036;15.466;2023-06-10T13:42:34;8.00;;;4.20;;
68097;SDS011;54886;47.036;15.466;2023-06-10T13:45:00;6.60;;;4.45;;
68097;SDS011;54886;47.036;15.466;2023-06-10T13:47:26;7.18;;;4.20;;
68097;SDS011;54886;47.036;15.466;2023-06-10T13:49:51;4.82;;;3.58;;
68097;SDS011;54886;47.036;15.466;2023-06-10T13:52:17;6.05;;;4.28;;
68097;SDS011;54886;47.036;15.466;2023-06-10T13:54:42;6.20;;;4.20;;
68097;SDS011;54886;47.036;15.466;2023-06-10T13:57:08;5.15;;;4.07;;
68097;SDS011;54886;47.036;15.466;2023-06-10T13:59:35;5.47;;;3.70;;
68097;SDS011;54886;47.036;15.466;2023-06-10T14:02:00;5.70;;;3.80;;
68097;SDS011;54886;47.036;15.466;2023-06-10T14:04:26;5.03;;;3.67;;
68097;SDS011;54886;47.036;15.466;2023-06-10T14:06:52;5.97;;;3.55;;
68097;SDS011;54886;47.036;15.466;2023-06-10T14:09:17;5.30;;;3.90;;
68097;SDS011;54886;47.036;15.466;2023-06-10T14:11:42;4.68;;;3.50;;
68097;SDS011;54886;47.036;15.466;2023-06-10T14:14:08;5.43;;;4.00;;
68097;SDS011;54886;47.036;15.466;2023-06-10T14:16:34;5.65;;;4.07;;
68097;SDS011;54886;47.036;15.466;2023-06-10T14:18:59;5.60;;;3.80;;
68097;SDS011;54886;47.036;15.466;2023-06-10T14:21:25;5.80;;;4.03;;
68097;SDS011;54886;47.036;15.466;2023-06-10T14:23:51;5.15;;;3.78;;
68097;SDS011;54886;47.036;15.466;2023-06-10T14:26:18;5.90;;;4.13;;
68097;SDS011;54886;47.036;15.466;2023-06-10T14:28:44;5.80;;;4.10;;
68097;SDS011;54886;47.036;15.466;2023-06-10T14:31:09;6.30;;;4.18;;
68097;SDS011;54886;47.036;15.466;2023-06-10T14:33:35;5.88;;;4.15;;
68097;SDS011;54886;47.036;15.466;2023-06-10T14:36:02;7.37;;;4.20;;
68097;SDS011;54886;47.036;15.466;2023-06-10T14:38:27;5.90;;;4.20;;
68097;SDS011;54886;47.036;15.466;2023-06-10T14:40:53;7.47;;;4.63;;
68097;SDS011;54886;47.036;15.466;2023-06-10T14:43:18;7.05;;;4.70;;
68097;SDS011;54886;47.036;15.466;2023-06-10T14:45:44;6.82;;;4.75;;
68097;SDS011;54886;47.036;15.466;2023-06-10T14:48:10;6.75;;;5.03;;
68097;SDS011;54886;47.036;15.466;2023-06-10T14:50:36;7.53;;;5.03;;
68097;SDS011;54886;47.036;15.466;2023-06-10T14:53:02;6.80;;;5.18;;
68097;SDS011;54886;47.036;15.466;2023-06-10T14:55:27;7.20;;;5.03;;